createdAt,value
2022-10-23T00:01:26.659Z,9.57
2022-10-23T00:03:58.400Z,9.03
2022-10-23T00:06:28.170Z,10.70
2022-10-23T00:08:57.071Z,9.97
2022-10-23T00:11:26.927Z,7.53
2022-10-23T00:13:57.040Z,11.27
2022-10-23T00:16:25.699Z,10.87
2022-10-23T00:18:55.449Z,11.27
2022-10-23T00:21:24.237Z,11.43
2022-10-23T00:23:52.894Z,9.47
2022-10-23T00:26:21.132Z,10.87
2022-10-23T00:28:51.885Z,9.23
2022-10-23T00:31:21.098Z,11.53
2022-10-23T00:33:49.633Z,12.90
2022-10-23T00:36:21.486Z,15.20
2022-10-23T00:38:50.973Z,15.00
2022-10-23T00:41:21.920Z,15.50
2022-10-23T00:43:59.512Z,13.87
2022-10-23T00:46:28.386Z,11.27
2022-10-23T00:48:58.600Z,12.60
2022-10-23T00:51:32.742Z,13.00
2022-10-23T00:54:22.938Z,13.53
2022-10-23T00:56:51.075Z,13.63
2022-10-23T00:59:19.536Z,15.33
2022-10-23T01:01:48.520Z,14.70
2022-10-23T01:04:16.890Z,15.73
2022-10-23T01:06:54.173Z,17.20
2022-10-23T01:09:31.072Z,16.77
2022-10-23T01:12:06.583Z,19.73
2022-10-23T01:14:41.965Z,20.17
2022-10-23T01:17:17.813Z,21.57
2022-10-23T01:19:57.854Z,16.90
2022-10-23T01:22:47.217Z,19.60
2022-10-23T01:25:30.920Z,22.93
2022-10-23T01:28:05.101Z,23.60
2022-10-23T01:30:36.879Z,22.77
2022-10-23T01:33:09.644Z,19.23
2022-10-23T01:35:41.870Z,21.67
2022-10-23T01:38:14.519Z,22.33
2022-10-23T01:40:50.099Z,23.23
2022-10-23T01:43:24.183Z,21.10
2022-10-23T01:45:54.892Z,19.97
2022-10-23T01:48:27.433Z,20.37
2022-10-23T01:50:58.939Z,24.27
2022-10-23T01:53:30.833Z,23.70
2022-10-23T01:56:01.737Z,24.23
2022-10-23T01:58:34.001Z,18.93
2022-10-23T02:01:06.546Z,25.17
2022-10-23T02:03:38.756Z,23.47
2022-10-23T02:06:07.629Z,21.93
2022-10-23T02:08:36.150Z,18.33
2022-10-23T02:11:09.884Z,18.23
2022-10-23T02:13:45.508Z,16.77
2022-10-23T02:16:20.977Z,14.90
2022-10-23T02:18:56.455Z,13.27
2022-10-23T02:21:32.807Z,18.03
2022-10-23T02:24:04.364Z,16.40
2022-10-23T02:26:37.715Z,19.13
2022-10-23T02:29:12.351Z,14.97
2022-10-23T02:31:40.900Z,13.17
2022-10-23T02:34:09.667Z,16.30
2022-10-23T02:36:38.120Z,14.53
2022-10-23T02:39:07.201Z,14.63
2022-10-23T02:41:45.483Z,12.67
2022-10-23T02:44:26.269Z,8.23
2022-10-23T02:47:04.023Z,9.90
2022-10-23T02:49:39.491Z,8.63
2022-10-23T02:52:13.944Z,7.57
2022-10-23T02:55:05.434Z,6.60
2022-10-23T02:57:41.327Z,7.57
2022-10-23T03:00:15.843Z,6.17
2022-10-23T03:02:49.279Z,6.97
2022-10-23T03:05:21.345Z,6.23
2022-10-23T03:07:49.935Z,8.67
2022-10-23T03:10:18.275Z,7.37
2022-10-23T03:12:47.593Z,10.73
2022-10-23T03:15:18.004Z,5.23
2022-10-23T03:17:46.243Z,5.83
2022-10-23T03:20:14.594Z,5.53
2022-10-23T03:22:42.913Z,4.97
2022-10-23T03:25:11.721Z,3.30
2022-10-23T03:27:40.131Z,3.60
2022-10-23T03:30:09.889Z,6.50
2022-10-23T03:32:39.880Z,4.87
2022-10-23T03:35:09.270Z,3.93
2022-10-23T03:37:37.464Z,3.00
2022-10-23T03:40:06.762Z,3.30
2022-10-23T03:42:35.151Z,2.53
2022-10-23T03:45:03.332Z,3.90
2022-10-23T03:47:32.498Z,4.63
2022-10-23T03:50:03.040Z,2.20
2022-10-23T03:52:31.060Z,2.70
2022-10-23T03:54:59.186Z,2.60
2022-10-23T03:57:27.565Z,2.13
2022-10-23T03:59:55.637Z,1.90
2022-10-23T04:02:24.090Z,2.70
2022-10-23T04:04:52.448Z,1.90
2022-10-23T04:07:21.877Z,5.13
2022-10-23T04:09:50.145Z,2.53
2022-10-23T04:12:18.530Z,1.50
2022-10-23T04:14:46.599Z,2.10
2022-10-23T04:17:14.909Z,1.50
2022-10-23T04:19:43.256Z,3.33
2022-10-23T04:22:11.448Z,1.47
2022-10-23T04:24:45.530Z,1.73
2022-10-23T04:27:14.219Z,2.17
2022-10-23T04:29:42.400Z,1.60
2022-10-23T04:32:10.981Z,2.73
2022-10-23T04:34:39.601Z,3.37
2022-10-23T04:37:07.730Z,3.80
2022-10-23T04:39:35.957Z,6.07
2022-10-23T04:42:05.800Z,5.97
2022-10-23T04:44:33.895Z,7.60
2022-10-23T04:47:02.107Z,12.50
2022-10-23T04:49:30.487Z,11.00
2022-10-23T04:51:58.524Z,6.87
2022-10-23T04:54:26.791Z,17.27
2022-10-23T04:56:54.927Z,12.67
2022-10-23T04:59:24.409Z,13.50
2022-10-23T05:01:52.768Z,14.53
2022-10-23T05:04:20.968Z,10.73
2022-10-23T05:06:49.029Z,16.93
2022-10-23T05:09:17.370Z,15.53
2022-10-23T05:11:45.694Z,18.43
2022-10-23T05:14:14.063Z,21.17
2022-10-23T05:16:48.033Z,20.93
2022-10-23T05:19:24.223Z,20.57
2022-10-23T05:21:56.170Z,26.30
2022-10-23T05:24:24.551Z,25.20
2022-10-23T05:26:53.956Z,28.73
2022-10-23T05:29:22.371Z,33.60
2022-10-23T05:31:55.768Z,35.70
2022-10-23T05:34:28.031Z,38.07
2022-10-23T05:36:56.935Z,29.27
2022-10-23T05:39:25.468Z,40.30
2022-10-23T05:41:55.273Z,31.97
2022-10-23T05:44:23.572Z,36.47
2022-10-23T05:46:53.585Z,42.10
2022-10-23T05:49:21.894Z,30.17
2022-10-23T05:51:50.064Z,41.27
2022-10-23T05:54:18.349Z,36.00
2022-10-23T05:56:46.520Z,33.50
2022-10-23T05:59:17.837Z,32.63
2022-10-23T06:01:49.065Z,25.03
2022-10-23T06:04:18.586Z,23.83
2022-10-23T06:06:46.976Z,27.43
2022-10-23T06:09:16.290Z,27.77
2022-10-23T06:11:44.511Z,24.63
2022-10-23T06:14:12.864Z,18.17
2022-10-23T06:16:44.322Z,16.13
2022-10-23T06:19:12.781Z,18.47
2022-10-23T06:21:42.849Z,22.70
2022-10-23T06:24:11.527Z,21.43
2022-10-23T06:26:39.959Z,21.73
2022-10-23T06:29:08.655Z,21.83
2022-10-23T06:31:36.881Z,31.17
2022-10-23T06:34:06.112Z,23.63
2022-10-23T06:36:34.433Z,27.60
2022-10-23T06:39:04.261Z,22.70
2022-10-23T06:41:32.465Z,22.10
2022-10-23T06:44:01.851Z,18.97
2022-10-23T06:46:33.227Z,15.50
2022-10-23T06:49:01.455Z,23.73
2022-10-23T06:51:30.084Z,23.17
2022-10-23T06:53:58.806Z,20.60
2022-10-23T06:56:29.354Z,21.17
2022-10-23T06:58:57.878Z,21.50
2022-10-23T07:01:26.331Z,18.33
2022-10-23T07:03:54.898Z,20.37
2022-10-23T07:06:23.056Z,18.73
2022-10-23T07:08:51.309Z,11.30
2022-10-23T07:11:19.925Z,16.10
2022-10-23T07:13:49.511Z,8.80
2022-10-23T07:16:20.290Z,9.53
2022-10-23T07:18:49.563Z,6.30
2022-10-23T07:21:19.924Z,8.63
2022-10-23T07:23:48.918Z,10.47
2022-10-23T07:26:19.723Z,9.77
2022-10-23T07:28:51.747Z,10.43
2022-10-23T07:31:24.285Z,10.43
2022-10-23T07:33:55.548Z,9.33
2022-10-23T07:36:23.929Z,7.77
2022-10-23T07:38:53.245Z,13.57
2022-10-23T07:41:21.743Z,8.43
2022-10-23T07:43:51.770Z,11.63
2022-10-23T07:46:22.434Z,18.00
2022-10-23T07:48:50.585Z,13.83
2022-10-23T07:51:21.224Z,11.90
2022-10-23T07:53:49.619Z,15.77
2022-10-23T07:56:22.060Z,13.70
2022-10-23T07:58:53.911Z,12.03
2022-10-23T08:01:28.965Z,11.90
2022-10-23T08:03:57.731Z,12.97
2022-10-23T08:06:28.103Z,12.60
2022-10-23T08:08:58.373Z,9.97
2022-10-23T08:11:29.108Z,14.40
2022-10-23T08:13:59.944Z,13.83
2022-10-23T08:16:28.881Z,16.47
2022-10-23T08:18:57.282Z,12.67
2022-10-23T08:21:25.782Z,10.50
2022-10-23T08:23:55.322Z,12.07
2022-10-23T08:26:24.764Z,14.17
2022-10-23T08:28:53.495Z,13.10
2022-10-23T08:31:23.984Z,11.33
2022-10-23T08:33:52.195Z,12.43
2022-10-23T08:36:23.523Z,10.93
2022-10-23T08:38:53.763Z,14.00
2022-10-23T08:41:28.795Z,10.27
2022-10-23T08:44:03.081Z,10.47
2022-10-23T08:46:38.872Z,14.03
2022-10-23T08:49:19.488Z,14.37
2022-10-23T08:51:51.405Z,15.93
2022-10-23T08:54:23.017Z,15.47
2022-10-23T08:56:55.159Z,19.17
2022-10-23T08:59:29.358Z,17.03
2022-10-23T09:02:03.828Z,19.63
2022-10-23T09:04:33.630Z,15.83
2022-10-23T09:09:58.369Z,13.60
2022-10-23T09:12:28.937Z,11.10
2022-10-23T09:15:19.989Z,15.73
2022-10-23T09:17:55.490Z,18.33
2022-10-23T09:20:26.235Z,15.63
2022-10-23T09:22:57.654Z,14.07
2022-10-23T09:25:29.338Z,18.53
2022-10-23T09:28:01.611Z,18.37
2022-10-23T09:30:36.382Z,16.53
2022-10-23T09:33:18.188Z,16.40
2022-10-23T09:35:59.404Z,19.13
2022-10-23T09:38:32.378Z,14.40
2022-10-23T09:41:06.306Z,12.27
2022-10-23T09:43:35.153Z,20.27
2022-10-23T09:46:06.291Z,18.80
2022-10-23T09:48:36.645Z,20.83
2022-10-23T09:51:16.647Z,19.83
2022-10-23T09:53:53.798Z,16.50
2022-10-23T09:56:30.933Z,17.67
2022-10-23T09:59:05.948Z,18.27
2022-10-23T10:01:37.181Z,22.27
2022-10-23T10:04:06.989Z,21.53
2022-10-23T10:06:35.724Z,17.00
2022-10-23T10:09:09.645Z,24.63
2022-10-23T10:11:46.094Z,23.57
2022-10-23T10:14:31.672Z,20.03
2022-10-23T10:17:18.208Z,17.53
2022-10-23T10:20:07.844Z,24.53
2022-10-23T10:22:48.560Z,23.13
2022-10-23T10:25:23.086Z,22.50
2022-10-23T10:28:03.564Z,24.07
2022-10-23T10:30:41.616Z,20.00
2022-10-23T10:33:18.551Z,24.63
2022-10-23T10:35:55.412Z,27.47
2022-10-23T10:38:46.924Z,25.73
2022-10-23T10:41:31.367Z,24.77
2022-10-23T10:44:21.163Z,17.53
2022-10-23T10:46:57.777Z,24.57
2022-10-23T10:49:33.838Z,19.33
2022-10-23T10:52:15.364Z,26.00
2022-10-23T10:54:56.508Z,25.03
2022-10-23T10:57:33.211Z,23.63
2022-10-23T11:00:05.505Z,18.67
2022-10-23T11:02:41.759Z,25.40
2022-10-23T11:05:22.023Z,24.90
2022-10-23T11:07:56.973Z,24.00
2022-10-23T11:10:25.224Z,24.03
2022-10-23T11:12:53.840Z,23.43
2022-10-23T11:15:27.479Z,29.03
2022-10-23T11:17:59.608Z,24.90
2022-10-23T11:20:54.144Z,34.17
2022-10-23T11:23:50.295Z,27.10
2022-10-23T11:26:31.983Z,21.47
2022-10-23T11:29:21.791Z,26.07
2022-10-23T11:32:02.821Z,19.63
2022-10-23T11:35:15.562Z,33.63
2022-10-23T11:37:44.060Z,17.43
2022-10-23T11:40:25.221Z,24.27
2022-10-23T11:42:53.956Z,21.97
2022-10-23T11:45:31.834Z,20.27
2022-10-23T11:48:03.284Z,25.43
2022-10-23T11:50:34.306Z,25.17
2022-10-23T11:53:14.672Z,26.60
2022-10-23T11:55:58.735Z,23.23
2022-10-23T11:58:33.727Z,18.60
2022-10-23T12:01:08.675Z,18.60
2022-10-23T12:03:52.246Z,14.67
2022-10-23T12:06:27.415Z,26.53
2022-10-23T12:08:59.118Z,17.87
2022-10-23T12:11:41.800Z,22.37
2022-10-23T12:14:32.298Z,16.97
2022-10-23T12:17:03.747Z,19.37
2022-10-23T12:19:50.287Z,18.70
2022-10-23T12:22:20.396Z,12.40
2022-10-23T12:25:02.479Z,15.67
2022-10-23T12:27:42.084Z,19.67
2022-10-23T12:30:22.776Z,16.67
2022-10-23T12:33:15.733Z,20.67
2022-10-23T12:36:08.765Z,15.73
2022-10-23T12:38:45.046Z,12.63
2022-10-23T12:41:16.863Z,18.67
2022-10-23T12:43:54.111Z,14.97
2022-10-23T12:46:33.436Z,10.47
2022-10-23T12:49:04.304Z,7.10
2022-10-23T12:51:37.782Z,10.97
2022-10-23T12:54:17.173Z,10.60
2022-10-23T12:56:45.776Z,16.13
2022-10-23T12:59:20.134Z,11.63
2022-10-23T13:01:52.659Z,12.73
2022-10-23T13:04:29.534Z,11.93
2022-10-23T13:07:01.194Z,15.23
2022-10-23T13:09:33.275Z,15.13
2022-10-23T13:12:05.901Z,12.77
2022-10-23T13:14:42.042Z,13.00
2022-10-23T13:17:13.485Z,16.13
2022-10-23T13:19:41.911Z,13.43
2022-10-23T13:22:21.416Z,16.47
2022-10-23T13:24:52.974Z,20.17
2022-10-23T13:27:33.060Z,18.10
2022-10-23T13:30:04.940Z,23.60
2022-10-23T13:32:35.715Z,21.27
2022-10-23T13:35:21.911Z,19.27
2022-10-23T13:37:51.335Z,16.17
2022-10-23T13:40:25.781Z,18.67
2022-10-23T13:42:57.690Z,20.77
2022-10-23T13:45:30.612Z,21.80
2022-10-23T13:48:00.042Z,19.90
2022-10-23T13:50:30.465Z,17.47
2022-10-23T13:52:58.542Z,18.97
2022-10-23T13:55:28.559Z,17.33
2022-10-23T13:57:56.811Z,20.30
2022-10-23T14:00:30.010Z,17.13
2022-10-23T14:02:58.903Z,16.33
2022-10-23T14:05:27.025Z,14.70
2022-10-23T14:07:55.549Z,17.07
2022-10-23T14:10:27.591Z,17.53
2022-10-23T14:12:56.106Z,17.87
2022-10-23T14:15:25.005Z,18.60
2022-10-23T14:17:58.976Z,14.57
2022-10-23T14:20:28.822Z,12.90
2022-10-23T14:22:59.090Z,16.27
2022-10-23T14:25:27.358Z,19.83
2022-10-23T14:27:56.561Z,18.57
2022-10-23T14:30:25.129Z,15.53
2022-10-23T14:32:55.227Z,10.50
2022-10-23T14:35:27.892Z,11.80
2022-10-23T14:38:00.526Z,12.23
2022-10-23T14:40:31.738Z,10.90
2022-10-23T14:43:00.022Z,14.13
2022-10-23T14:45:29.917Z,9.60
2022-10-23T14:48:02.466Z,11.70
2022-10-23T14:50:32.620Z,11.13
2022-10-23T14:55:34.812Z,12.77
2022-10-23T14:58:03.244Z,11.13
2022-10-23T15:00:31.663Z,12.33
2022-10-23T15:03:01.684Z,9.57
2022-10-23T15:05:30.033Z,10.37
2022-10-23T15:07:59.123Z,9.70
2022-10-23T15:10:27.609Z,8.37
2022-10-23T15:12:56.093Z,11.47
2022-10-23T15:15:24.378Z,10.53
2022-10-23T15:17:53.818Z,6.57
2022-10-23T15:20:23.646Z,8.20
2022-10-23T15:22:52.036Z,6.60
2022-10-23T15:25:20.714Z,6.73
2022-10-23T15:27:49.684Z,6.40
2022-10-23T15:30:18.822Z,5.63
2022-10-23T15:32:47.094Z,5.90
2022-10-23T15:35:15.791Z,6.20
2022-10-23T15:37:45.849Z,10.47
2022-10-23T15:40:14.466Z,9.80
2022-10-23T15:42:43.093Z,14.13
2022-10-23T15:45:14.678Z,10.93
2022-10-23T15:47:43.544Z,9.97
2022-10-23T15:50:11.914Z,10.10
2022-10-23T15:52:40.272Z,13.03
2022-10-23T15:55:12.065Z,7.63
2022-10-23T15:57:40.528Z,12.83
2022-10-23T16:00:11.327Z,12.03
2022-10-23T16:02:39.856Z,12.50
2022-10-23T16:05:08.311Z,11.33
2022-10-23T16:07:36.800Z,7.70
2022-10-23T16:10:06.627Z,9.33
2022-10-23T16:12:36.323Z,8.60
2022-10-23T16:15:04.769Z,13.53
2022-10-23T16:17:33.195Z,14.50
2022-10-23T16:20:01.742Z,16.70
2022-10-23T16:22:30.261Z,14.13
2022-10-23T16:24:58.852Z,21.63
2022-10-23T16:27:27.192Z,25.50
2022-10-23T16:29:57.280Z,18.67
2022-10-23T16:32:25.615Z,15.50
2022-10-23T16:34:53.819Z,17.20
2022-10-23T16:37:21.941Z,17.40
2022-10-23T16:39:50.498Z,20.27
2022-10-23T16:44:52.058Z,20.33
2022-10-23T16:47:22.051Z,14.70
2022-10-23T16:49:50.153Z,19.70
2022-10-23T16:52:19.282Z,18.70
2022-10-23T16:54:47.467Z,28.83
2022-10-23T16:57:15.701Z,22.70
2022-10-23T16:59:44.258Z,18.27
2022-10-23T17:02:13.271Z,20.60
2022-10-23T17:04:42.952Z,24.10
2022-10-23T17:07:13.325Z,24.13
2022-10-23T17:09:41.956Z,18.63
2022-10-23T17:12:10.236Z,19.17
2022-10-23T17:14:39.091Z,15.53
2022-10-23T17:17:09.841Z,18.87
2022-10-23T17:19:45.958Z,16.80
2022-10-23T17:22:16.852Z,15.67
2022-10-23T17:24:48.757Z,12.43
2022-10-23T17:27:19.871Z,15.07
2022-10-23T17:29:48.238Z,15.30
2022-10-23T17:32:16.505Z,12.70
2022-10-23T17:34:45.128Z,11.20
2022-10-23T17:37:14.427Z,13.10
2022-10-23T17:39:44.110Z,20.57
2022-10-23T17:42:12.322Z,17.70
2022-10-23T17:44:41.159Z,16.90
2022-10-23T17:47:09.987Z,17.50
2022-10-23T17:49:39.631Z,16.83
2022-10-23T17:52:12.559Z,14.87
2022-10-23T17:54:42.213Z,21.03
2022-10-23T17:57:11.813Z,25.43
2022-10-23T17:59:40.452Z,15.37
2022-10-23T18:02:09.024Z,14.97
2022-10-23T18:04:37.348Z,20.40
2022-10-23T18:07:05.662Z,17.23
2022-10-23T18:09:34.148Z,17.93
2022-10-23T18:12:02.433Z,20.20
2022-10-23T18:14:34.304Z,17.33
2022-10-23T18:17:05.250Z,16.50
2022-10-23T18:19:33.561Z,20.53
2022-10-23T18:22:01.727Z,20.40
2022-10-23T18:24:31.111Z,20.67
2022-10-23T18:26:59.841Z,25.37
2022-10-23T18:29:28.554Z,19.73
2022-10-23T18:32:00.368Z,22.83
2022-10-23T18:34:32.681Z,17.97
2022-10-23T18:37:01.376Z,22.03
2022-10-23T18:39:29.810Z,27.63
2022-10-23T18:41:59.474Z,26.23
2022-10-23T18:44:29.970Z,21.50
2022-10-23T18:47:01.042Z,22.53
2022-10-23T18:49:29.408Z,26.30
2022-10-23T18:51:58.619Z,24.10
2022-10-23T18:54:26.980Z,27.87
2022-10-23T18:56:55.206Z,21.00
2022-10-23T18:59:25.016Z,26.73
2022-10-23T19:01:53.336Z,23.43
2022-10-23T19:04:23.504Z,15.97
2022-10-23T19:06:52.170Z,21.03
2022-10-23T19:09:20.394Z,29.20
2022-10-23T19:11:48.833Z,27.90
2022-10-23T19:14:17.141Z,24.70
2022-10-23T19:16:58.653Z,25.53
2022-10-23T19:19:31.242Z,18.30
2022-10-23T19:22:00.468Z,22.70
2022-10-23T19:24:34.535Z,17.00
2022-10-23T19:27:03.306Z,17.40
2022-10-23T19:29:32.241Z,15.93
2022-10-23T19:32:02.144Z,20.23
2022-10-23T19:34:31.932Z,18.03
2022-10-23T19:37:00.402Z,13.77
2022-10-23T19:39:28.996Z,18.60
2022-10-23T19:41:57.824Z,14.37
2022-10-23T19:44:26.494Z,13.73
2022-10-23T19:46:55.326Z,14.00
2022-10-23T19:49:24.034Z,13.00
2022-10-23T19:51:54.055Z,16.50
2022-10-23T19:54:22.902Z,12.17
2022-10-23T19:56:51.345Z,12.73
2022-10-23T19:59:19.543Z,14.83
2022-10-23T20:01:49.092Z,13.80
2022-10-23T20:04:18.766Z,11.63
2022-10-23T20:06:47.513Z,14.27
2022-10-23T20:09:17.164Z,15.27
2022-10-23T20:11:45.549Z,13.57
2022-10-23T20:14:14.356Z,13.50
2022-10-23T20:16:45.473Z,16.90
2022-10-23T20:21:50.295Z,10.83
2022-10-23T20:24:21.364Z,10.70
2022-10-23T20:26:51.707Z,12.67
2022-10-23T20:29:20.504Z,20.30
2022-10-23T20:31:48.921Z,15.30
2022-10-23T20:34:17.497Z,11.00
2022-10-23T20:36:48.645Z,17.93
2022-10-23T20:39:20.395Z,14.87
2022-10-23T20:41:49.334Z,18.07
2022-10-23T20:44:19.005Z,17.17
2022-10-23T20:46:47.813Z,15.03
2022-10-23T20:49:16.807Z,13.20
2022-10-23T20:51:44.936Z,13.33
2022-10-23T20:54:13.658Z,12.50
2022-10-23T20:56:43.477Z,15.03
2022-10-23T20:59:14.455Z,13.37
2022-10-23T21:01:44.869Z,14.27
2022-10-23T21:04:14.658Z,12.13
2022-10-23T21:06:57.712Z,13.10
2022-10-23T21:09:31.898Z,14.43
2022-10-23T21:12:01.984Z,13.17
2022-10-23T21:14:30.640Z,17.50
2022-10-23T21:16:58.892Z,13.33
2022-10-23T21:19:27.438Z,16.30
2022-10-23T21:21:56.077Z,18.10
2022-10-23T21:24:24.873Z,13.10
2022-10-23T21:26:53.332Z,17.90
2022-10-23T21:29:22.979Z,9.17
2022-10-23T21:31:55.298Z,13.90
2022-10-23T21:34:23.674Z,11.50
2022-10-23T21:37:22.078Z,10.47
2022-10-23T21:39:40.544Z,12.90
2022-10-23T21:42:11.690Z,13.10
2022-10-23T21:44:41.672Z,12.10
2022-10-23T21:47:10.044Z,16.87
2022-10-23T21:49:38.517Z,13.07
2022-10-23T21:52:06.948Z,11.80
2022-10-23T21:54:35.063Z,13.03
2022-10-23T21:57:04.546Z,14.70
2022-10-23T21:59:35.912Z,13.03
2022-10-23T22:02:06.267Z,12.87
2022-10-23T22:04:34.817Z,13.40
2022-10-23T22:07:04.262Z,11.17
2022-10-23T22:09:33.292Z,17.23
2022-10-23T22:12:02.434Z,13.80
2022-10-23T22:14:30.790Z,14.10
2022-10-23T22:17:00.036Z,13.60
2022-10-23T22:19:29.880Z,14.80
2022-10-23T22:21:58.480Z,11.90
2022-10-23T22:24:27.142Z,17.47
2022-10-23T22:26:57.302Z,17.57
2022-10-23T22:29:28.361Z,15.53
2022-10-23T22:31:57.500Z,15.83
2022-10-23T22:34:48.303Z,15.57
2022-10-23T22:37:17.285Z,16.70
2022-10-23T22:39:45.710Z,19.33
2022-10-23T22:42:13.914Z,14.80
2022-10-23T22:44:42.211Z,16.83
2022-10-23T22:47:10.334Z,12.27
2022-10-23T22:49:38.743Z,11.87
2022-10-23T22:52:07.173Z,11.53
2022-10-23T22:54:36.809Z,11.67
2022-10-23T22:57:05.087Z,7.37
2022-10-23T22:59:33.500Z,12.17
2022-10-23T23:02:02.023Z,8.83
2022-10-23T23:04:37.892Z,8.43
2022-10-23T23:07:07.177Z,7.70
2022-10-23T23:09:39.380Z,8.50
2022-10-23T23:12:08.622Z,8.20
2022-10-23T23:14:37.134Z,9.83
2022-10-23T23:17:06.237Z,7.33
2022-10-23T23:19:34.618Z,6.43
2022-10-23T23:22:04.594Z,9.07
2022-10-23T23:24:33.258Z,9.27
2022-10-23T23:27:02.983Z,10.10
2022-10-23T23:29:31.147Z,8.67
2022-10-23T23:31:59.700Z,8.70
2022-10-23T23:34:28.369Z,9.47
2022-10-23T23:36:56.419Z,11.43
2022-10-23T23:39:26.178Z,6.13
2022-10-23T23:41:54.598Z,7.70
2022-10-23T23:44:24.591Z,10.03
2022-10-23T23:46:53.315Z,8.83
2022-10-23T23:49:21.695Z,8.70
2022-10-23T23:51:50.382Z,8.07
2022-10-23T23:54:18.873Z,7.43
2022-10-23T23:56:47.384Z,10.03
2022-10-23T23:59:15.430Z,9.60
